Time;durP1;ratioP1;P1;durP2;ratioP2;P2;SDS_P1;SDS_P2;PMS_P1;PMS_P2;Temp;Humidity;BMP_temperature;BMP_pressure;BME280_temperature;BME280_humidity;BME280_pressure;Samples;Min_cycle;Max_cycle;Signal;HPM_P1;HPM_P2
2023/09/28 00:00:46;;;;;;;14.02;10.85;;;;;;;;;;5034110;28;20120;-77
2023/09/28 00:02:46;;;;;;;11.23;9.95;;;;;;;;;;5026668;28;20103;-79
2023/09/28 00:05:15;;;;;;;11.65;10.45;;;;;;;;;;5031084;28;20072;-76
2023/09/28 00:07:44;;;;;;;12.50;11.15;;;;;;;;;;5023967;28;20046;-76
2023/09/28 00:10:11;;;;;;;13.52;11.10;;;;;;;;;;5027865;28;20045;-76
2023/09/28 00:12:41;;;;;;;15.57;11.30;;;;;;;;;;5031602;28;20546;-76
2023/09/28 00:15:08;;;;;;;12.15;10.88;;;;;;;;;;5029069;28;20138;-77
2023/09/28 00:17:34;;;;;;;12.00;10.80;;;;;;;;;;5033080;28;20037;-77
2023/09/28 00:20:00;;;;;;;15.75;10.65;;;;;;;;;;5031387;28;20136;-78
2023/09/28 00:22:27;;;;;;;13.07;10.52;;;;;;;;;;5030528;28;20128;-76
2023/09/28 00:24:53;;;;;;;12.38;10.38;;;;;;;;;;5029520;28;20391;-76
2023/09/28 00:27:19;;;;;;;11.93;10.55;;;;;;;;;;5032102;28;20049;-77
2023/09/28 00:29:46;;;;;;;12.77;11.00;;;;;;;;;;5033765;28;20052;-76
2023/09/28 00:32:13;;;;;;;12.57;10.80;;;;;;;;;;5033848;28;20045;-76
2023/09/28 00:34:39;;;;;;;12.15;10.95;;;;;;;;;;5032996;28;20041;-76
2023/09/28 00:37:05;;;;;;;14.52;10.90;;;;;;;;;;5031193;28;20048;-78
2023/09/28 00:39:31;;;;;;;14.18;10.65;;;;;;;;;;5032432;28;20128;-77
2023/09/28 00:41:57;;;;;;;13.18;10.85;;;;;;;;;;5032762;28;20045;-77
2023/09/28 00:44:23;;;;;;;11.75;10.55;;;;;;;;;;5030484;28;20053;-76
2023/09/28 00:46:50;;;;;;;12.18;10.93;;;;;;;;;;5031834;28;20412;-76
2023/09/28 00:49:17;;;;;;;13.75;11.23;;;;;;;;;;5031041;28;20050;-77
2023/09/28 00:51:44;;;;;;;13.20;11.10;;;;;;;;;;5031439;28;20049;-77
2023/09/28 00:54:11;;;;;;;12.73;10.95;;;;;;;;;;5032130;28;20407;-77
2023/09/28 00:56:37;;;;;;;13.57;11.10;;;;;;;;;;5030187;28;20052;-77
2023/09/28 00:59:04;;;;;;;12.75;10.88;;;;;;;;;;5033409;28;20080;-77
2023/09/28 01:01:31;;;;;;;12.57;11.18;;;;;;;;;;5023236;28;20183;-76
2023/09/28 01:04:01;;;;;;;12.50;11.23;;;;;;;;;;5031136;28;20058;-77
2023/09/28 01:06:27;;;;;;;13.30;11.25;;;;;;;;;;5029697;28;20046;-77
2023/09/28 01:08:53;;;;;;;14.65;10.82;;;;;;;;;;5028735;28;20053;-76
2023/09/28 01:11:22;;;;;;;11.90;10.70;;;;;;;;;;5031993;28;20041;-76
2023/09/28 01:13:50;;;;;;;12.32;10.05;;;;;;;;;;5033166;28;20049;-75
2023/09/28 01:16:19;;;;;;;11.75;10.55;;;;;;;;;;5029731;28;20136;-76
2023/09/28 01:18:45;;;;;;;11.95;10.57;;;;;;;;;;5027395;28;20049;-76
2023/09/28 01:21:12;;;;;;;11.73;10.40;;;;;;;;;;5028250;28;20129;-77
2023/09/28 01:23:39;;;;;;;14.02;10.25;;;;;;;;;;5033085;28;20073;-76
2023/09/28 01:26:06;;;;;;;10.88;9.77;;;;;;;;;;5031065;28;20266;-76
2023/09/28 01:28:33;;;;;;;14.25;9.93;;;;;;;;;;5031466;28;20038;-76
2023/09/28 01:30:59;;;;;;;13.13;10.13;;;;;;;;;;5030772;28;20048;-76
2023/09/28 01:33:27;;;;;;;13.25;10.23;;;;;;;;;;5028287;28;20087;-76
2023/09/28 01:35:53;;;;;;;10.75;9.48;;;;;;;;;;5032747;28;20050;-76
2023/09/28 01:38:22;;;;;;;13.85;9.85;;;;;;;;;;5030287;28;20091;-76
2023/09/28 01:40:49;;;;;;;10.43;8.93;;;;;;;;;;5029945;28;20056;-76
2023/09/28 01:43:18;;;;;;;10.25;9.07;;;;;;;;;;5034132;28;20069;-77
2023/09/28 01:45:44;;;;;;;11.65;9.27;;;;;;;;;;5031831;28;20041;-76
2023/09/28 01:48:11;;;;;;;14.07;9.20;;;;;;;;;;5031702;28;20057;-76
2023/09/28 01:50:37;;;;;;;10.52;8.15;;;;;;;;;;5030641;28;20045;-76
2023/09/28 01:53:03;;;;;;;11.27;9.02;;;;;;;;;;5030562;28;20676;-76
2023/09/28 01:55:29;;;;;;;11.18;8.40;;;;;;;;;;5031449;28;20530;-76
2023/09/28 01:57:55;;;;;;;11.50;8.70;;;;;;;;;;5030607;28;20204;-78
2023/09/28 02:00:24;;;;;;;10.40;7.10;;;;;;;;;;5032616;28;20049;-76
2023/09/28 02:02:52;;;;;;;9.48;8.48;;;;;;;;;;5031200;28;20514;-76
2023/09/28 02:05:19;;;;;;;9.90;7.72;;;;;;;;;;5035717;28;20381;-76
2023/09/28 02:07:48;;;;;;;10.60;8.20;;;;;;;;;;5034160;28;20460;-76
2023/09/28 02:10:14;;;;;;;11.05;8.30;;;;;;;;;;5033682;28;20096;-75
2023/09/28 02:12:41;;;;;;;10.13;7.43;;;;;;;;;;5032045;28;20543;-75
2023/09/28 02:15:09;;;;;;;8.60;7.13;;;;;;;;;;5030749;28;20038;-76
2023/09/28 02:17:38;;;;;;;10.82;6.60;;;;;;;;;;5023109;28;20049;-76
2023/09/28 02:20:09;;;;;;;9.45;6.55;;;;;;;;;;5029353;28;20103;-76
2023/09/28 02:22:36;;;;;;;9.15;6.80;;;;;;;;;;5021507;28;20120;-75
2023/09/28 02:25:02;;;;;;;9.80;6.57;;;;;;;;;;5035192;28;20084;-75
2023/09/28 02:27:29;;;;;;;8.80;6.30;;;;;;;;;;5028080;28;20381;-76
2023/09/28 02:29:56;;;;;;;9.32;6.70;;;;;;;;;;5031998;28;20041;-76
2023/09/28 02:32:22;;;;;;;8.68;6.78;;;;;;;;;;5034181;28;20057;-78
2023/09/28 02:34:48;;;;;;;8.45;6.25;;;;;;;;;;5034778;28;20045;-77
2023/09/28 02:37:14;;;;;;;8.40;6.60;;;;;;;;;;5034502;28;20046;-76
2023/09/28 02:39:41;;;;;;;8.25;6.18;;;;;;;;;;5032670;28;20567;-76
2023/09/28 02:42:07;;;;;;;9.98;6.72;;;;;;;;;;5032907;28;20049;-77
2023/09/28 02:44:36;;;;;;;11.43;6.45;;;;;;;;;;5034735;28;20042;-76
2023/09/28 02:47:06;;;;;;;10.05;6.90;;;;;;;;;;5035591;28;20056;-76
2023/09/28 02:49:35;;;;;;;10.27;6.75;;;;;;;;;;5032951;28;20081;-75
2023/09/28 02:52:02;;;;;;;9.88;6.75;;;;;;;;;;5035597;28;20431;-75
2023/09/28 02:54:29;;;;;;;9.40;6.05;;;;;;;;;;5035757;28;20053;-75
2023/09/28 02:56:56;;;;;;;11.55;6.50;;;;;;;;;;5035823;28;20088;-76
2023/09/28 02:59:22;;;;;;;8.38;6.07;;;;;;;;;;5031698;28;20057;-75
2023/09/28 03:01:49;;;;;;;8.52;6.22;;;;;;;;;;5035419;28;20432;-76
2023/09/28 03:04:16;;;;;;;10.68;6.75;;;;;;;;;;5035547;28;20054;-75
2023/09/28 03:06:44;;;;;;;10.00;6.22;;;;;;;;;;5035830;28;20053;-77
2023/09/28 03:09:11;;;;;;;9.65;6.15;;;;;;;;;;5033612;28;20056;-76
2023/09/28 03:11:39;;;;;;;9.80;6.82;;;;;;;;;;5032547;28;20076;-75
2023/09/28 03:14:05;;;;;;;9.80;7.20;;;;;;;;;;5033232;28;20046;-75
2023/09/28 03:16:32;;;;;;;9.90;6.68;;;;;;;;;;5020308;28;20037;-76
2023/09/28 03:18:58;;;;;;;9.00;6.85;;;;;;;;;;5032069;28;20480;-75
2023/09/28 03:21:25;;;;;;;12.73;7.60;;;;;;;;;;5030995;28;20160;-75
2023/09/28 03:23:51;;;;;;;11.93;7.07;;;;;;;;;;5034622;28;20120;-75
2023/09/28 03:26:17;;;;;;;10.02;6.75;;;;;;;;;;5035311;28;20047;-77
2023/09/28 03:28:43;;;;;;;11.23;7.38;;;;;;;;;;5034266;28;20041;-76
2023/09/28 03:31:11;;;;;;;10.20;7.03;;;;;;;;;;5025675;28;20045;-76
2023/09/28 03:33:37;;;;;;;10.55;7.13;;;;;;;;;;5026367;28;20097;-76
2023/09/28 03:36:04;;;;;;;14.23;6.85;;;;;;;;;;5028637;28;20041;-76
2023/09/28 03:38:30;;;;;;;11.40;6.95;;;;;;;;;;5031907;28;20049;-77
2023/09/28 03:40:56;;;;;;;10.30;7.55;;;;;;;;;;5033895;28;20050;-77
2023/09/28 03:43:23;;;;;;;10.90;7.20;;;;;;;;;;5033244;28;20078;-77
2023/09/28 03:45:49;;;;;;;10.98;6.95;;;;;;;;;;5033996;28;20049;-76
2023/09/28 03:48:15;;;;;;;12.88;7.25;;;;;;;;;;5034997;28;20395;-75
2023/09/28 03:50:41;;;;;;;10.20;7.13;;;;;;;;;;5033922;28;20546;-75
2023/09/28 03:53:07;;;;;;;11.85;7.35;;;;;;;;;;5024473;28;20050;-76
2023/09/28 03:55:33;;;;;;;9.55;7.03;;;;;;;;;;5016953;28;20103;-76
2023/09/28 03:58:00;;;;;;;9.43;7.22;;;;;;;;;;5034646;28;20041;-76
2023/09/28 04:00:27;;;;;;;10.13;7.03;;;;;;;;;;5033997;28;20052;-76
2023/09/28 04:02:53;;;;;;;9.48;7.22;;;;;;;;;;5030685;28;20045;-76
2023/09/28 04:05:19;;;;;;;9.43;6.90;;;;;;;;;;5031876;28;20041;-76
2023/09/28 04:07:45;;;;;;;10.88;7.10;;;;;;;;;;5033235;28;20049;-76
2023/09/28 04:10:12;;;;;;;11.00;6.55;;;;;;;;;;5031616;28;21815;-76
2023/09/28 04:12:38;;;;;;;10.68;7.10;;;;;;;;;;5023479;28;20050;-76
2023/09/28 04:15:05;;;;;;;10.32;7.03;;;;;;;;;;5017085;28;20481;-76
2023/09/28 04:17:34;;;;;;;9.65;7.18;;;;;;;;;;5014034;28;20057;-76
2023/09/28 04:20:00;;;;;;;9.63;7.13;;;;;;;;;;5028093;28;20496;-76
2023/09/28 04:22:26;;;;;;;11.48;7.18;;;;;;;;;;5031963;28;20053;-76
2023/09/28 04:24:52;;;;;;;11.88;7.55;;;;;;;;;;5020798;28;20034;-76
2023/09/28 04:27:18;;;;;;;11.65;8.13;;;;;;;;;;5018295;28;20052;-76
2023/09/28 04:29:45;;;;;;;11.48;7.53;;;;;;;;;;5032857;28;20559;-76
2023/09/28 04:32:11;;;;;;;11.85;8.40;;;;;;;;;;5032138;28;20045;-76
2023/09/28 04:34:39;;;;;;;11.48;7.47;;;;;;;;;;5030702;28;20510;-76
2023/09/28 04:37:05;;;;;;;13.38;8.50;;;;;;;;;;5032584;28;20077;-76
2023/09/28 04:39:33;;;;;;;11.48;8.45;;;;;;;;;;5030153;28;20053;-76
2023/09/28 04:41:59;;;;;;;10.82;7.97;;;;;;;;;;5032796;28;20484;-76
2023/09/28 04:44:25;;;;;;;11.25;7.90;;;;;;;;;;5032139;28;20500;-76
2023/09/28 04:46:51;;;;;;;12.05;8.07;;;;;;;;;;5033402;28;20128;-76
2023/09/28 04:49:20;;;;;;;12.77;8.32;;;;;;;;;;5031756;28;20109;-76
2023/09/28 04:51:47;;;;;;;11.18;7.57;;;;;;;;;;5031937;28;20563;-76
2023/09/28 04:54:14;;;;;;;11.50;7.88;;;;;;;;;;5029860;28;20095;-76
2023/09/28 04:56:41;;;;;;;10.15;7.93;;;;;;;;;;5031822;28;20045;-78
2023/09/28 04:59:08;;;;;;;13.98;7.43;;;;;;;;;;5032665;28;20410;-76
2023/09/28 05:01:34;;;;;;;10.65;7.90;;;;;;;;;;5032008;28;20092;-76
2023/09/28 05:04:00;;;;;;;10.68;8.15;;;;;;;;;;5033223;28;20060;-76
2023/09/28 05:06:27;;;;;;;11.82;8.18;;;;;;;;;;5029901;28;20151;-76
2023/09/28 05:08:53;;;;;;;13.02;8.20;;;;;;;;;;5031100;28;20041;-76
2023/09/28 05:11:19;;;;;;;11.75;7.97;;;;;;;;;;5028923;28;20038;-76
2023/09/28 05:13:45;;;;;;;13.57;7.53;;;;;;;;;;5031609;28;20084;-76
2023/09/28 05:16:11;;;;;;;12.25;8.02;;;;;;;;;;5029886;28;20042;-76
2023/09/28 05:18:38;;;;;;;13.57;8.75;;;;;;;;;;5033159;28;20122;-76
2023/09/28 05:21:05;;;;;;;13.40;8.15;;;;;;;;;;5031610;28;20045;-76
2023/09/28 05:23:30;;;;;;;12.20;8.90;;;;;;;;;;5032397;28;20095;-76
2023/09/28 05:25:57;;;;;;;13.13;7.82;;;;;;;;;;5028962;28;20128;-78
2023/09/28 05:28:22;;;;;;;12.88;8.75;;;;;;;;;;5030244;28;20512;-76
2023/09/28 05:30:48;;;;;;;13.43;8.38;;;;;;;;;;5030877;28;20041;-78
2023/09/28 05:33:15;;;;;;;17.38;8.88;;;;;;;;;;5028388;28;20136;-76
2023/09/28 05:35:41;;;;;;;11.68;8.88;;;;;;;;;;5009080;28;20049;-76
2023/09/28 05:38:07;;;;;;;12.43;8.93;;;;;;;;;;5031168;28;20061;-78
2023/09/28 05:40:33;;;;;;;12.65;8.88;;;;;;;;;;5035225;28;20373;-76
2023/09/28 05:42:59;;;;;;;11.73;8.48;;;;;;;;;;5035692;28;20046;-77
2023/09/28 05:45:26;;;;;;;11.88;9.52;;;;;;;;;;5036084;28;20046;-76
2023/09/28 05:47:52;;;;;;;11.65;8.82;;;;;;;;;;5035403;28;20057;-76
2023/09/28 05:50:18;;;;;;;12.38;8.95;;;;;;;;;;5035010;28;20041;-77
2023/09/28 05:52:45;;;;;;;12.05;9.05;;;;;;;;;;5035560;28;20068;-77
2023/09/28 05:55:11;;;;;;;14.52;9.30;;;;;;;;;;5034484;28;20499;-78
2023/09/28 05:57:37;;;;;;;13.00;9.07;;;;;;;;;;5020778;28;20048;-77
2023/09/28 06:00:08;;;;;;;13.25;8.93;;;;;;;;;;5015958;28;20524;-77
2023/09/28 06:02:34;;;;;;;11.43;8.35;;;;;;;;;;5028277;28;20134;-77
2023/09/28 06:05:00;;;;;;;19.33;8.30;;;;;;;;;;5028005;28;20054;-76
2023/09/28 06:07:27;;;;;;;12.20;7.97;;;;;;;;;;5034367;28;20148;-75
2023/09/28 06:09:53;;;;;;;12.02;7.43;;;;;;;;;;5034316;28;20117;-77
2023/09/28 06:12:19;;;;;;;13.10;7.82;;;;;;;;;;5035015;28;20096;-77
2023/09/28 06:14:45;;;;;;;13.95;7.82;;;;;;;;;;5030235;28;20096;-76
2023/09/28 06:17:11;;;;;;;11.20;7.22;;;;;;;;;;5032044;28;20053;-77
2023/09/28 06:19:37;;;;;;;12.40;7.63;;;;;;;;;;5034469;28;20049;-76
2023/09/28 06:22:08;;;;;;;13.85;7.30;;;;;;;;;;5034539;28;20514;-77
2023/09/28 06:24:34;;;;;;;10.90;6.65;;;;;;;;;;5033155;28;20072;-75
2023/09/28 06:27:00;;;;;;;12.05;7.13;;;;;;;;;;5033807;28;20476;-76
2023/09/28 06:29:26;;;;;;;13.52;6.72;;;;;;;;;;5025090;28;20095;-76
2023/09/28 06:31:52;;;;;;;17.88;6.93;;;;;;;;;;5031840;28;20048;-77
2023/09/28 06:34:18;;;;;;;18.88;7.28;;;;;;;;;;5030628;28;20041;-75
2023/09/28 06:36:45;;;;;;;17.70;7.22;;;;;;;;;;5030757;28;20466;-76
2023/09/28 06:39:11;;;;;;;13.23;6.45;;;;;;;;;;5078917;22;20063;-76
2023/09/28 06:41:37;;;;;;;15.63;6.20;;;;;;;;;;5071807;28;20049;-76
2023/09/28 06:44:03;;;;;;;11.68;6.40;;;;;;;;;;5060626;28;20048;-77
2023/09/28 06:46:29;;;;;;;12.45;6.30;;;;;;;;;;5074064;28;20052;-77
2023/09/28 06:48:55;;;;;;;13.57;6.63;;;;;;;;;;5069823;28;20041;-78
2023/09/28 06:51:22;;;;;;;17.77;6.57;;;;;;;;;;5075661;28;20044;-76
2023/09/28 06:53:48;;;;;;;10.88;6.57;;;;;;;;;;5074915;28;20074;-75
2023/09/28 06:56:14;;;;;;;11.70;6.10;;;;;;;;;;5068292;28;20052;-76
2023/09/28 06:58:40;;;;;;;10.50;5.78;;;;;;;;;;5071866;28;20063;-76
2023/09/28 07:01:06;;;;;;;15.65;6.07;;;;;;;;;;5073206;28;20089;-76
2023/09/28 07:03:32;;;;;;;14.18;6.70;;;;;;;;;;5073163;28;20053;-76
2023/09/28 07:05:58;;;;;;;17.20;6.25;;;;;;;;;;5073632;28;20128;-77
2023/09/28 07:08:24;;;;;;;15.90;5.72;;;;;;;;;;5073604;28;20159;-75
2023/09/28 07:10:50;;;;;;;14.23;5.70;;;;;;;;;;5073934;28;20037;-76
2023/09/28 07:13:16;;;;;;;14.70;5.90;;;;;;;;;;5068144;28;20064;-76
2023/09/28 07:15:42;;;;;;;12.90;5.30;;;;;;;;;;5070157;28;20394;-77
2023/09/28 07:18:09;;;;;;;11.52;5.05;;;;;;;;;;5074520;28;20115;-76
2023/09/28 07:20:36;;;;;;;11.63;5.70;;;;;;;;;;5074449;28;20041;-77
2023/09/28 07:23:02;;;;;;;13.27;5.40;;;;;;;;;;5074492;28;20128;-77
2023/09/28 07:25:29;;;;;;;13.18;4.63;;;;;;;;;;5074330;28;20052;-76
2023/09/28 07:27:56;;;;;;;16.10;5.38;;;;;;;;;;5074884;28;20131;-75
2023/09/28 07:30:25;;;;;;;15.45;5.20;;;;;;;;;;5063246;28;20048;-76
2023/09/28 07:32:51;;;;;;;18.25;5.00;;;;;;;;;;5069891;28;20089;-77
2023/09/28 07:35:19;;;;;;;16.65;5.20;;;;;;;;;;5068274;28;20079;-77
2023/09/28 07:37:45;;;;;;;19.90;5.53;;;;;;;;;;5069579;28;20056;-77
2023/09/28 07:40:17;;;;;;;14.25;4.50;;;;;;;;;;5073175;28;20060;-77
2023/09/28 07:42:44;;;;;;;20.17;5.53;;;;;;;;;;5066862;28;20103;-77
2023/09/28 07:45:18;;;;;;;17.55;4.65;;;;;;;;;;5059131;28;20094;-77
2023/09/28 07:47:44;;;;;;;19.05;5.10;;;;;;;;;;5071666;28;20549;-76
2023/09/28 07:50:11;;;;;;;18.13;4.85;;;;;;;;;;5069116;28;20044;-76
2023/09/28 07:52:38;;;;;;;20.38;4.57;;;;;;;;;;5073707;28;20052;-76
2023/09/28 07:55:05;;;;;;;18.73;4.80;;;;;;;;;;5072986;28;20093;-75
2023/09/28 07:57:32;;;;;;;18.27;5.15;;;;;;;;;;5063853;28;20109;-77
2023/09/28 07:59:58;;;;;;;21.23;4.43;;;;;;;;;;5062055;28;20048;-77
2023/09/28 08:02:24;;;;;;;20.50;5.18;;;;;;;;;;5072129;28;20044;-75
2023/09/28 08:04:51;;;;;;;20.98;4.90;;;;;;;;;;5066461;28;20056;-76
2023/09/28 08:07:18;;;;;;;25.08;5.70;;;;;;;;;;5071119;28;20495;-76
2023/09/28 08:09:44;;;;;;;21.52;5.18;;;;;;;;;;5072237;28;20040;-77
2023/09/28 08:12:10;;;;;;;18.45;4.70;;;;;;;;;;5073745;28;20044;-77
2023/09/28 08:14:36;;;;;;;18.17;4.63;;;;;;;;;;5073814;28;20499;-78
2023/09/28 08:17:02;;;;;;;23.83;4.93;;;;;;;;;;5073731;28;20051;-77
2023/09/28 08:19:29;;;;;;;21.83;5.05;;;;;;;;;;5072398;28;20037;-77
2023/09/28 08:21:55;;;;;;;26.98;6.28;;;;;;;;;;5073766;28;20084;-78
2023/09/28 08:24:21;;;;;;;22.13;4.80;;;;;;;;;;5053636;28;20110;-78
2023/09/28 08:26:47;;;;;;;25.25;5.18;;;;;;;;;;5058950;28;20048;-77
2023/09/28 08:29:15;;;;;;;20.42;4.82;;;;;;;;;;5073794;28;20479;-77
2023/09/28 08:31:41;;;;;;;24.63;5.32;;;;;;;;;;5072664;28;20470;-77
2023/09/28 08:34:08;;;;;;;18.02;4.57;;;;;;;;;;5072396;28;20087;-77
2023/09/28 08:36:34;;;;;;;19.92;4.40;;;;;;;;;;5073503;28;20124;-77
2023/09/28 08:39:00;;;;;;;22.55;4.75;;;;;;;;;;5071622;28;20562;-77
2023/09/28 08:41:47;;;;;;;18.05;4.10;;;;;;;;;;5071219;28;20409;-77
2023/09/28 08:44:14;;;;;;;19.23;4.55;;;;;;;;;;5065409;28;20504;-77
2023/09/28 08:46:40;;;;;;;21.38;4.90;;;;;;;;;;5074194;28;20090;-75
2023/09/28 08:49:07;;;;;;;20.63;4.97;;;;;;;;;;5072718;28;20071;-72
2023/09/28 08:51:34;;;;;;;25.35;4.90;;;;;;;;;;5072352;28;20066;-73
2023/09/28 08:54:05;;;;;;;23.27;5.13;;;;;;;;;;5070232;28;20082;-72
2023/09/28 08:56:39;;;;;;;20.58;4.50;;;;;;;;;;5072774;28;20136;-73
2023/09/28 08:59:05;;;;;;;24.35;5.05;;;;;;;;;;5071474;28;20563;-72
2023/09/28 09:01:32;;;;;;;20.67;4.65;;;;;;;;;;5072233;28;20052;-73
2023/09/28 09:03:59;;;;;;;23.17;5.07;;;;;;;;;;5072152;28;20037;-74
2023/09/28 09:06:28;;;;;;;24.13;5.30;;;;;;;;;;5072177;28;20052;-72
2023/09/28 09:08:55;;;;;;;15.63;4.15;;;;;;;;;;5070995;28;20048;-73
2023/09/28 09:11:22;;;;;;;24.75;5.25;;;;;;;;;;5070658;28;20036;-73
2023/09/28 09:13:52;;;;;;;22.20;5.30;;;;;;;;;;5071217;28;20044;-72
2023/09/28 09:16:18;;;;;;;23.55;5.57;;;;;;;;;;5068461;28;20056;-72
2023/09/28 09:18:48;;;;;;;24.50;5.20;;;;;;;;;;5053251;28;20167;-72
2023/09/28 09:21:14;;;;;;;25.63;4.72;;;;;;;;;;5064908;28;20049;-74
2023/09/28 09:23:40;;;;;;;19.40;4.30;;;;;;;;;;5065923;28;20504;-72
2023/09/28 09:26:17;;;;;;;19.08;4.65;;;;;;;;;;5064353;28;20533;-71
2023/09/28 09:28:44;;;;;;;23.08;5.05;;;;;;;;;;5061000;28;20044;-72
2023/09/28 09:31:10;;;;;;;25.42;4.70;;;;;;;;;;5067198;28;20055;-73
2023/09/28 09:33:36;;;;;;;22.73;4.43;;;;;;;;;;5069598;28;20040;-73
2023/09/28 09:36:02;;;;;;;27.30;4.82;;;;;;;;;;5071334;28;20149;-72
2023/09/28 09:38:29;;;;;;;18.02;3.97;;;;;;;;;;5063256;28;20045;-73
2023/09/28 09:40:59;;;;;;;24.20;4.45;;;;;;;;;;5069268;28;20372;-72
2023/09/28 09:43:26;;;;;;;19.60;3.85;;;;;;;;;;5079214;28;20047;-72
2023/09/28 09:45:52;;;;;;;23.92;4.18;;;;;;;;;;5066639;28;20048;-73
2023/09/28 09:48:20;;;;;;;22.60;4.63;;;;;;;;;;5070920;28;20120;-73
2023/09/28 09:50:46;;;;;;;21.73;4.78;;;;;;;;;;5070191;28;20102;-71
2023/09/28 09:53:13;;;;;;;21.52;4.65;;;;;;;;;;5070819;28;20087;-73
2023/09/28 09:55:41;;;;;;;21.00;4.78;;;;;;;;;;5079267;28;20043;-73
2023/09/28 09:58:10;;;;;;;24.33;5.38;;;;;;;;;;5069742;28;20044;-73
2023/09/28 10:00:37;;;;;;;24.90;4.75;;;;;;;;;;5065210;28;20076;-73
2023/09/28 10:03:05;;;;;;;23.33;5.75;;;;;;;;;;5056092;28;20047;-71
2023/09/28 10:05:34;;;;;;;26.50;5.10;;;;;;;;;;5066824;28;20083;-72
2023/09/28 10:08:01;;;;;;;20.73;4.35;;;;;;;;;;5071451;28;20052;-73
2023/09/28 10:10:28;;;;;;;19.63;4.50;;;;;;;;;;5069827;28;20518;-72
2023/09/28 10:12:55;;;;;;;21.60;4.38;;;;;;;;;;5069769;28;20045;-72
2023/09/28 10:15:22;;;;;;;21.42;4.40;;;;;;;;;;5071224;28;20049;-72
2023/09/28 10:17:49;;;;;;;20.95;5.10;;;;;;;;;;5072950;28;20428;-72
2023/09/28 10:20:15;;;;;;;22.08;4.65;;;;;;;;;;5070802;28;20110;-71
2023/09/28 10:22:44;;;;;;;23.20;5.30;;;;;;;;;;5068833;28;20052;-72
2023/09/28 10:25:12;;;;;;;26.23;4.88;;;;;;;;;;5070148;28;20044;-72
2023/09/28 10:27:39;;;;;;;19.73;4.18;;;;;;;;;;5073550;28;20084;-72
2023/09/28 10:30:22;;;;;;;19.77;4.28;;;;;;;;;;5068367;28;20495;-71
2023/09/28 10:32:51;;;;;;;24.20;4.63;;;;;;;;;;5068826;28;20041;-71
2023/09/28 10:35:20;;;;;;;21.17;4.43;;;;;;;;;;5061356;28;20060;-72
2023/09/28 10:38:05;;;;;;;23.25;4.30;;;;;;;;;;5053998;28;20083;-72
2023/09/28 10:40:33;;;;;;;25.27;4.90;;;;;;;;;;5073537;28;20133;-72
2023/09/28 10:43:13;;;;;;;20.02;3.63;;;;;;;;;;5073522;28;20506;-72
2023/09/28 10:45:41;;;;;;;23.85;4.50;;;;;;;;;;5056459;28;20060;-72
2023/09/28 10:48:07;;;;;;;23.00;4.70;;;;;;;;;;5070843;28;20053;-72
2023/09/28 10:50:39;;;;;;;20.02;4.18;;;;;;;;;;5075250;28;20505;-72
2023/09/28 10:53:05;;;;;;;17.48;4.00;;;;;;;;;;5069691;28;20056;-72
2023/09/28 10:55:31;;;;;;;19.40;4.10;;;;;;;;;;5063427;28;20131;-71
2023/09/28 10:58:03;;;;;;;19.02;4.07;;;;;;;;;;5061715;28;20076;-72
2023/09/28 11:00:30;;;;;;;20.67;4.18;;;;;;;;;;5065695;28;20056;-72
2023/09/28 11:02:56;;;;;;;22.25;4.43;;;;;;;;;;5054778;28;20056;-73
2023/09/28 11:05:22;;;;;;;20.45;4.35;;;;;;;;;;5055022;28;20049;-72
2023/09/28 11:07:48;;;;;;;23.15;5.38;;;;;;;;;;5053942;28;20510;-72
2023/09/28 11:10:14;;;;;;;18.50;4.72;;;;;;;;;;5054955;28;20079;-73
2023/09/28 11:12:41;;;;;;;28.70;5.07;;;;;;;;;;5070754;28;20080;-73
2023/09/28 11:15:09;;;;;;;22.17;4.95;;;;;;;;;;5067223;28;20049;-73
2023/09/28 11:17:37;;;;;;;32.05;5.32;;;;;;;;;;5072058;28;20048;-74
2023/09/28 11:20:04;;;;;;;23.70;4.72;;;;;;;;;;5074669;28;20124;-72
2023/09/28 11:22:30;;;;;;;23.38;4.95;;;;;;;;;;5073531;28;20055;-73
2023/09/28 11:24:57;;;;;;;20.98;4.82;;;;;;;;;;5074870;28;20063;-73
2023/09/28 11:27:24;;;;;;;23.30;4.55;;;;;;;;;;5074749;28;20399;-73
2023/09/28 11:29:57;;;;;;;27.77;4.97;;;;;;;;;;5074499;28;20463;-73
2023/09/28 11:32:23;;;;;;;21.15;4.47;;;;;;;;;;5072293;28;20155;-72
2023/09/28 11:34:49;;;;;;;24.50;5.43;;;;;;;;;;5073825;28;20105;-73
2023/09/28 11:37:19;;;;;;;23.65;5.25;;;;;;;;;;5071165;28;20052;-71
2023/09/28 11:39:45;;;;;;;20.00;4.63;;;;;;;;;;5065517;28;20125;-72
2023/09/28 11:42:12;;;;;;;23.42;4.63;;;;;;;;;;5062587;28;20131;-72
2023/09/28 11:44:38;;;;;;;24.23;4.78;;;;;;;;;;5074159;28;20163;-74
2023/09/28 11:47:08;;;;;;;19.60;4.00;;;;;;;;;;5073427;28;20056;-72
2023/09/28 11:49:37;;;;;;;22.80;4.20;;;;;;;;;;5072514;28;20052;-72
2023/09/28 11:52:04;;;;;;;20.58;3.90;;;;;;;;;;5073893;28;20104;-72
2023/09/28 11:54:30;;;;;;;20.40;4.35;;;;;;;;;;5073445;28;20037;-72
2023/09/28 11:56:57;;;;;;;23.08;3.97;;;;;;;;;;5065274;28;20135;-73
2023/09/28 11:59:24;;;;;;;19.83;3.92;;;;;;;;;;5058380;28;20116;-73
2023/09/28 12:01:52;;;;;;;19.35;4.30;;;;;;;;;;5074045;28;20079;-72
2023/09/28 12:04:18;;;;;;;19.52;4.20;;;;;;;;;;5073790;28;20048;-72
2023/09/28 12:06:45;;;;;;;23.27;4.85;;;;;;;;;;5073439;28;20043;-73
2023/09/28 12:09:13;;;;;;;24.33;4.18;;;;;;;;;;5064184;28;20053;-72
2023/09/28 12:11:40;;;;;;;22.60;4.47;;;;;;;;;;5053559;28;20049;-72
2023/09/28 12:14:07;;;;;;;22.85;4.35;;;;;;;;;;5064342;28;20044;-71
2023/09/28 12:16:33;;;;;;;22.15;4.90;;;;;;;;;;5073512;28;20051;-71
2023/09/28 12:18:59;;;;;;;26.00;4.90;;;;;;;;;;5070940;28;20041;-73
2023/09/28 12:21:26;;;;;;;20.17;4.20;;;;;;;;;;5072091;28;20554;-74
2023/09/28 12:23:52;;;;;;;19.00;5.00;;;;;;;;;;5073137;28;20044;-72
2023/09/28 12:26:18;;;;;;;21.30;4.13;;;;;;;;;;5069520;28;20044;-72
2023/09/28 12:28:44;;;;;;;20.30;4.30;;;;;;;;;;5072796;28;20048;-75
2023/09/28 12:31:12;;;;;;;16.90;4.18;;;;;;;;;;5072942;28;20049;-75
2023/09/28 12:33:38;;;;;;;20.77;4.40;;;;;;;;;;5070463;28;20158;-73
2023/09/28 12:36:09;;;;;;;24.40;4.70;;;;;;;;;;5073403;28;20044;-75
2023/09/28 12:38:35;;;;;;;23.13;4.25;;;;;;;;;;5072028;28;20110;-74
2023/09/28 12:41:04;;;;;;;24.40;4.10;;;;;;;;;;5073223;28;20060;-73
2023/09/28 12:43:31;;;;;;;19.75;4.13;;;;;;;;;;5071660;28;20040;-74
2023/09/28 12:45:57;;;;;;;21.45;4.53;;;;;;;;;;5073368;28;20074;-72
2023/09/28 12:48:24;;;;;;;18.27;4.68;;;;;;;;;;5062230;28;20033;-73
2023/09/28 12:50:51;;;;;;;22.25;4.20;;;;;;;;;;5052823;28;20045;-73
2023/09/28 12:53:17;;;;;;;24.80;5.10;;;;;;;;;;5062428;28;20045;-74
2023/09/28 12:55:43;;;;;;;18.25;4.10;;;;;;;;;;5073003;28;20044;-74
2023/09/28 12:58:09;;;;;;;17.77;4.38;;;;;;;;;;5065219;28;20128;-76
2023/09/28 13:00:37;;;;;;;25.45;5.05;;;;;;;;;;5059547;28;20044;-73
2023/09/28 13:03:07;;;;;;;21.45;4.65;;;;;;;;;;5051764;28;20048;-74
2023/09/28 13:05:37;;;;;;;17.70;4.07;;;;;;;;;;5051780;28;20053;-73
2023/09/28 13:08:04;;;;;;;19.27;5.00;;;;;;;;;;5057848;28;20041;-76
2023/09/28 13:10:30;;;;;;;24.10;4.55;;;;;;;;;;5072069;28;20123;-73
2023/09/28 13:12:56;;;;;;;18.05;4.53;;;;;;;;;;5059972;28;21270;-75
2023/09/28 13:15:22;;;;;;;22.23;4.32;;;;;;;;;;5072995;28;20048;-72
2023/09/28 13:17:49;;;;;;;20.92;4.35;;;;;;;;;;5068564;28;20095;-76
2023/09/28 13:20:26;;;;;;;21.60;4.47;;;;;;;;;;5058610;28;20032;-75
2023/09/28 13:22:54;;;;;;;20.95;4.50;;;;;;;;;;5072931;28;20056;-74
2023/09/28 13:25:23;;;;;;;17.60;4.28;;;;;;;;;;5072306;28;20056;-71
2023/09/28 13:27:50;;;;;;;26.40;4.85;;;;;;;;;;5060411;28;20067;-74
2023/09/28 13:30:19;;;;;;;15.77;4.63;;;;;;;;;;5056372;28;20131;-75
2023/09/28 13:32:46;;;;;;;21.08;4.45;;;;;;;;;;5057167;28;20560;-75
2023/09/28 13:35:13;;;;;;;19.20;4.45;;;;;;;;;;5073353;28;20075;-77
2023/09/28 13:37:39;;;;;;;22.35;4.28;;;;;;;;;;5072350;28;20569;-77
2023/09/28 13:40:22;;;;;;;23.92;4.90;;;;;;;;;;5073808;28;20087;-76
2023/09/28 13:42:49;;;;;;;22.90;4.30;;;;;;;;;;5075376;28;20072;-78
2023/09/28 13:45:17;;;;;;;21.55;3.97;;;;;;;;;;5075407;28;20044;-77
2023/09/28 13:47:43;;;;;;;20.13;4.30;;;;;;;;;;5078005;28;20052;-76
2023/09/28 13:50:10;;;;;;;20.80;4.50;;;;;;;;;;5078221;28;20054;-78
2023/09/28 13:52:37;;;;;;;19.40;4.18;;;;;;;;;;5073258;28;20052;-76
2023/09/28 13:55:04;;;;;;;19.40;4.30;;;;;;;;;;5071822;28;20044;-76
2023/09/28 13:57:30;;;;;;;23.83;4.60;;;;;;;;;;5073180;28;20512;-76
2023/09/28 14:00:00;;;;;;;23.48;5.30;;;;;;;;;;5071235;28;20379;-75
2023/09/28 14:02:26;;;;;;;18.67;4.30;;;;;;;;;;5069530;28;20048;-76
2023/09/28 14:04:52;;;;;;;25.75;4.90;;;;;;;;;;5077295;28;20047;-76
2023/09/28 14:07:20;;;;;;;23.90;4.95;;;;;;;;;;5075849;28;20556;-76
2023/09/28 14:09:46;;;;;;;20.95;4.50;;;;;;;;;;5076173;28;20072;-76
2023/09/28 14:12:13;;;;;;;21.60;4.53;;;;;;;;;;5077866;28;20052;-75
2023/09/28 14:14:41;;;;;;;25.77;5.65;;;;;;;;;;5075539;28;20411;-75
2023/09/28 14:17:08;;;;;;;26.67;4.90;;;;;;;;;;5075983;28;20053;-74
2023/09/28 14:19:35;;;;;;;23.25;4.43;;;;;;;;;;5070395;28;20056;-75
2023/09/28 14:22:03;;;;;;;25.23;4.82;;;;;;;;;;5075783;28;20394;-75
2023/09/28 14:24:29;;;;;;;25.35;4.90;;;;;;;;;;5075115;28;20049;-75
2023/09/28 14:26:56;;;;;;;25.63;5.00;;;;;;;;;;5074983;28;20040;-75